Terminal Aerodrome Forecast
Issued by NWS

Current Version | Previous Version | Graphics & Text | Print | Product List | Glossary On
Versions: 1 2 3 4 5 6 7 8 9 10 11 12 13 14 15 16 17 18 19 20 21 22 23 24
340
FTUS41 KPBZ 261126
TAFHLG
TAF
KHLG 261126Z 2612/2712 24012G22KT P6SM SCT060 WS020/25040KT
      TEMPO 2619/2621 VRB15G30KT -TSRA BKN050CB
     FM262200 32012G18KT P6SM BKN050
     FM270000 33007KT P6SM SCT035=

USA.gov is the U.S. government's official web portal to all federal, state and local government web resources and services.